KCMY/CMY METAR and TAF weather

Enter ICAO airport designator
Station Type Date Time Source
KCMY METAR 2021/09/20 05:58 UTC NOAA

KCMY 200558Z AUTO 00000KT 10SM CLR 24/18 A2989 RMK AO2 LTG DSNT NW SLP119 60000 T02370176 10250 20173 403060116 58006


Station Type Date Time Source
KCMY Decoded METAR 2021/09/20 05:58 UTC NOAA

Sparta, Sparta / Fort McCoy Airport, WI, United States (KCMY) 43-57-30N 090-44-16W
Sep 20, 2021 - 01:58 AM EDT / 2021.09.20 0558 UTC
Wind: Calm:0
Visibility: 10 mile(s):0
Sky conditions: clear
Weather: Lightning observed
Temperature: 74.7 F (23.7 C)
Dew Point: 63.7 F (17.6 C)
Relative Humidity: 68%
Pressure (altimeter): 29.89 in. Hg (1012 hPa)
Pressure tendency: 0.02 inches (0.6 hPa) lower than three hours ago
ob: KCMY 200558Z AUTO 00000KT 10SM CLR 24/18 A2989 RMK AO2 LTG DSNT NW SLP119 60000 T02370176 10250 20173 403060116 58006
cycle: 6

Station Type Date Time Source
KCMY TAF UTC NOAA

Error!

Example: see airport list